sensor_id;sensor_type;location;lat;lon;timestamp;P1;durP1;ratioP1;P2;durP2;ratioP2
22468;SDS011;11401;50.792;4.352;2022-08-19T00:01:48;5.65;;;5.15;;
22468;SDS011;11401;50.792;4.352;2022-08-19T00:04:23;6.85;;;5.00;;
22468;SDS011;11401;50.792;4.352;2022-08-19T00:06:53;5.20;;;4.80;;
22468;SDS011;11401;50.792;4.352;2022-08-19T00:09:21;5.28;;;4.85;;
22468;SDS011;11401;50.792;4.352;2022-08-19T00:11:49;5.35;;;4.85;;
22468;SDS011;11401;50.792;4.352;2022-08-19T00:14:16;5.35;;;4.85;;
22468;SDS011;11401;50.792;4.352;2022-08-19T00:16:44;7.28;;;5.45;;
22468;SDS011;11401;50.792;4.352;2022-08-19T00:19:13;5.47;;;4.97;;
22468;SDS011;11401;50.792;4.352;2022-08-19T00:21:42;5.50;;;5.10;;
22468;SDS011;11401;50.792;4.352;2022-08-19T00:24:10;5.82;;;5.30;;
22468;SDS011;11401;50.792;4.352;2022-08-19T00:26:40;5.78;;;5.20;;
22468;SDS011;11401;50.792;4.352;2022-08-19T00:29:09;6.00;;;5.50;;
22468;SDS011;11401;50.792;4.352;2022-08-19T00:31:38;6.25;;;5.75;;
22468;SDS011;11401;50.792;4.352;2022-08-19T00:34:05;7.57;;;6.57;;
22468;SDS011;11401;50.792;4.352;2022-08-19T00:36:32;6.97;;;6.35;;
22468;SDS011;11401;50.792;4.352;2022-08-19T00:38:59;7.47;;;6.78;;
22468;SDS011;11401;50.792;4.352;2022-08-19T00:41:27;8.32;;;6.47;;
22468;SDS011;11401;50.792;4.352;2022-08-19T00:44:02;7.53;;;6.82;;
22468;SDS011;11401;50.792;4.352;2022-08-19T00:46:33;6.20;;;5.60;;
22468;SDS011;11401;50.792;4.352;2022-08-19T00:51:47;7.45;;;6.68;;
22468;SDS011;11401;50.792;4.352;2022-08-19T00:54:16;6.95;;;6.35;;
22468;SDS011;11401;50.792;4.352;2022-08-19T00:56:53;7.88;;;7.18;;
22468;SDS011;11401;50.792;4.352;2022-08-19T00:59:21;8.38;;;7.45;;
22468;SDS011;11401;50.792;4.352;2022-08-19T01:02:08;8.60;;;7.75;;
22468;SDS011;11401;50.792;4.352;2022-08-19T01:04:35;7.90;;;7.10;;
22468;SDS011;11401;50.792;4.352;2022-08-19T01:07:02;9.07;;;8.18;;
22468;SDS011;11401;50.792;4.352;2022-08-19T01:09:29;8.18;;;7.40;;
22468;SDS011;11401;50.792;4.352;2022-08-19T01:11:57;8.80;;;7.65;;
22468;SDS011;11401;50.792;4.352;2022-08-19T01:14:24;8.70;;;7.90;;
22468;SDS011;11401;50.792;4.352;2022-08-19T01:16:52;10.02;;;9.10;;
22468;SDS011;11401;50.792;4.352;2022-08-19T01:19:24;10.60;;;8.55;;
22468;SDS011;11401;50.792;4.352;2022-08-19T01:22:30;9.93;;;8.95;;
22468;SDS011;11401;50.792;4.352;2022-08-19T01:25:02;11.45;;;10.25;;
22468;SDS011;11401;50.792;4.352;2022-08-19T01:27:41;11.10;;;9.98;;
22468;SDS011;11401;50.792;4.352;2022-08-19T01:30:15;9.90;;;8.88;;
22468;SDS011;11401;50.792;4.352;2022-08-19T01:32:46;12.82;;;9.10;;
22468;SDS011;11401;50.792;4.352;2022-08-19T01:35:13;13.15;;;10.10;;
22468;SDS011;11401;50.792;4.352;2022-08-19T01:37:43;11.80;;;10.57;;
22468;SDS011;11401;50.792;4.352;2022-08-19T01:40:12;14.02;;;12.52;;
22468;SDS011;11401;50.792;4.352;2022-08-19T01:42:39;16.50;;;12.25;;
22468;SDS011;11401;50.792;4.352;2022-08-19T01:45:06;17.15;;;11.55;;
22468;SDS011;11401;50.792;4.352;2022-08-19T01:47:35;11.63;;;10.40;;
22468;SDS011;11401;50.792;4.352;2022-08-19T01:50:04;13.02;;;11.27;;
22468;SDS011;11401;50.792;4.352;2022-08-19T01:52:35;13.30;;;11.70;;
22468;SDS011;11401;50.792;4.352;2022-08-19T01:55:03;12.00;;;10.65;;
22468;SDS011;11401;50.792;4.352;2022-08-19T01:57:32;13.50;;;12.10;;
22468;SDS011;11401;50.792;4.352;2022-08-19T02:00:01;12.82;;;11.18;;
22468;SDS011;11401;50.792;4.352;2022-08-19T02:02:36;14.38;;;12.13;;
22468;SDS011;11401;50.792;4.352;2022-08-19T02:05:04;13.30;;;12.00;;
22468;SDS011;11401;50.792;4.352;2022-08-19T02:07:36;14.30;;;12.85;;
22468;SDS011;11401;50.792;4.352;2022-08-19T02:10:09;15.70;;;13.75;;
22468;SDS011;11401;50.792;4.352;2022-08-19T02:12:42;13.88;;;12.50;;
22468;SDS011;11401;50.792;4.352;2022-08-19T02:15:09;13.05;;;11.75;;
22468;SDS011;11401;50.792;4.352;2022-08-19T02:17:37;15.40;;;12.95;;
22468;SDS011;11401;50.792;4.352;2022-08-19T02:20:04;13.60;;;11.75;;
22468;SDS011;11401;50.792;4.352;2022-08-19T02:22:32;17.20;;;14.05;;
22468;SDS011;11401;50.792;4.352;2022-08-19T02:24:59;14.88;;;12.40;;
22468;SDS011;11401;50.792;4.352;2022-08-19T02:27:27;12.80;;;11.25;;
22468;SDS011;11401;50.792;4.352;2022-08-19T02:29:54;13.18;;;11.80;;
22468;SDS011;11401;50.792;4.352;2022-08-19T02:32:20;14.43;;;12.93;;
22468;SDS011;11401;50.792;4.352;2022-08-19T02:34:47;13.02;;;11.73;;
22468;SDS011;11401;50.792;4.352;2022-08-19T02:37:14;14.55;;;12.45;;
22468;SDS011;11401;50.792;4.352;2022-08-19T02:40:00;13.18;;;11.85;;
22468;SDS011;11401;50.792;4.352;2022-08-19T02:42:28;15.93;;;13.63;;
22468;SDS011;11401;50.792;4.352;2022-08-19T02:44:55;18.13;;;12.52;;
22468;SDS011;11401;50.792;4.352;2022-08-19T02:47:22;12.85;;;11.52;;
22468;SDS011;11401;50.792;4.352;2022-08-19T02:49:49;13.57;;;12.13;;
22468;SDS011;11401;50.792;4.352;2022-08-19T02:52:16;13.00;;;11.40;;
22468;SDS011;11401;50.792;4.352;2022-08-19T02:54:43;14.93;;;13.23;;
22468;SDS011;11401;50.792;4.352;2022-08-19T02:57:10;12.27;;;11.02;;
22468;SDS011;11401;50.792;4.352;2022-08-19T02:59:37;14.40;;;12.40;;
22468;SDS011;11401;50.792;4.352;2022-08-19T03:02:04;13.77;;;11.02;;
22468;SDS011;11401;50.792;4.352;2022-08-19T03:04:31;12.45;;;11.10;;
22468;SDS011;11401;50.792;4.352;2022-08-19T03:06:58;13.13;;;11.38;;
22468;SDS011;11401;50.792;4.352;2022-08-19T03:09:37;13.15;;;11.75;;
22468;SDS011;11401;50.792;4.352;2022-08-19T03:12:04;15.77;;;12.45;;
22468;SDS011;11401;50.792;4.352;2022-08-19T03:14:32;14.80;;;11.45;;
22468;SDS011;11401;50.792;4.352;2022-08-19T03:17:00;13.82;;;11.25;;
22468;SDS011;11401;50.792;4.352;2022-08-19T03:19:27;12.88;;;11.48;;
22468;SDS011;11401;50.792;4.352;2022-08-19T03:21:54;13.23;;;10.75;;
22468;SDS011;11401;50.792;4.352;2022-08-19T03:24:21;12.27;;;10.30;;
22468;SDS011;11401;50.792;4.352;2022-08-19T03:26:50;12.43;;;10.60;;
22468;SDS011;11401;50.792;4.352;2022-08-19T03:29:18;13.80;;;11.00;;
22468;SDS011;11401;50.792;4.352;2022-08-19T03:31:55;13.77;;;10.35;;
22468;SDS011;11401;50.792;4.352;2022-08-19T03:34:26;11.45;;;10.23;;
22468;SDS011;11401;50.792;4.352;2022-08-19T03:36:55;17.38;;;12.48;;
22468;SDS011;11401;50.792;4.352;2022-08-19T03:39:24;11.55;;;10.25;;
22468;SDS011;11401;50.792;4.352;2022-08-19T03:41:52;15.75;;;11.48;;
22468;SDS011;11401;50.792;4.352;2022-08-19T03:44:42;14.25;;;9.90;;
22468;SDS011;11401;50.792;4.352;2022-08-19T03:47:10;13.35;;;10.90;;
22468;SDS011;11401;50.792;4.352;2022-08-19T03:49:42;14.13;;;11.15;;
22468;SDS011;11401;50.792;4.352;2022-08-19T03:52:10;11.20;;;9.50;;
22468;SDS011;11401;50.792;4.352;2022-08-19T03:54:37;15.00;;;10.80;;
22468;SDS011;11401;50.792;4.352;2022-08-19T03:57:04;12.80;;;9.23;;
22468;SDS011;11401;50.792;4.352;2022-08-19T03:59:33;13.77;;;10.75;;
22468;SDS011;11401;50.792;4.352;2022-08-19T04:02:02;13.43;;;10.95;;
22468;SDS011;11401;50.792;4.352;2022-08-19T04:04:36;11.40;;;10.20;;
22468;SDS011;11401;50.792;4.352;2022-08-19T04:07:04;12.95;;;10.55;;
22468;SDS011;11401;50.792;4.352;2022-08-19T04:09:31;14.35;;;10.25;;
22468;SDS011;11401;50.792;4.352;2022-08-19T04:12:00;12.48;;;9.98;;
22468;SDS011;11401;50.792;4.352;2022-08-19T04:14:28;11.20;;;9.40;;
22468;SDS011;11401;50.792;4.352;2022-08-19T04:16:58;12.90;;;10.25;;
22468;SDS011;11401;50.792;4.352;2022-08-19T04:19:26;15.93;;;11.65;;
22468;SDS011;11401;50.792;4.352;2022-08-19T04:21:56;13.77;;;9.90;;
22468;SDS011;11401;50.792;4.352;2022-08-19T04:24:23;13.75;;;10.73;;
22468;SDS011;11401;50.792;4.352;2022-08-19T04:26:51;13.90;;;10.70;;
22468;SDS011;11401;50.792;4.352;2022-08-19T04:29:20;11.02;;;9.27;;
22468;SDS011;11401;50.792;4.352;2022-08-19T04:31:52;14.55;;;9.50;;
22468;SDS011;11401;50.792;4.352;2022-08-19T04:34:20;14.18;;;9.38;;
22468;SDS011;11401;50.792;4.352;2022-08-19T04:36:52;13.55;;;10.00;;
22468;SDS011;11401;50.792;4.352;2022-08-19T04:39:21;15.18;;;10.60;;
22468;SDS011;11401;50.792;4.352;2022-08-19T04:42:17;12.30;;;9.27;;
22468;SDS011;11401;50.792;4.352;2022-08-19T04:45:04;12.13;;;9.85;;
22468;SDS011;11401;50.792;4.352;2022-08-19T04:47:38;15.73;;;9.48;;
22468;SDS011;11401;50.792;4.352;2022-08-19T04:50:24;16.60;;;10.15;;
22468;SDS011;11401;50.792;4.352;2022-08-19T04:52:52;13.75;;;9.95;;
22468;SDS011;11401;50.792;4.352;2022-08-19T04:55:19;15.07;;;10.82;;
22468;SDS011;11401;50.792;4.352;2022-08-19T04:57:46;13.27;;;11.18;;
22468;SDS011;11401;50.792;4.352;2022-08-19T05:00:13;13.35;;;8.88;;
22468;SDS011;11401;50.792;4.352;2022-08-19T05:02:40;12.48;;;10.40;;
22468;SDS011;11401;50.792;4.352;2022-08-19T05:05:08;11.30;;;9.13;;
22468;SDS011;11401;50.792;4.352;2022-08-19T05:07:35;14.55;;;10.80;;
22468;SDS011;11401;50.792;4.352;2022-08-19T05:10:04;13.02;;;11.27;;
22468;SDS011;11401;50.792;4.352;2022-08-19T05:12:32;13.38;;;10.60;;
22468;SDS011;11401;50.792;4.352;2022-08-19T05:14:59;13.30;;;9.48;;
22468;SDS011;11401;50.792;4.352;2022-08-19T05:17:27;13.38;;;10.27;;
22468;SDS011;11401;50.792;4.352;2022-08-19T05:20:01;12.40;;;10.07;;
22468;SDS011;11401;50.792;4.352;2022-08-19T05:22:49;14.38;;;10.50;;
22468;SDS011;11401;50.792;4.352;2022-08-19T05:25:17;16.88;;;11.25;;
22468;SDS011;11401;50.792;4.352;2022-08-19T05:27:46;13.20;;;9.65;;
22468;SDS011;11401;50.792;4.352;2022-08-19T05:30:14;12.82;;;9.85;;
22468;SDS011;11401;50.792;4.352;2022-08-19T05:32:42;14.63;;;10.93;;
22468;SDS011;11401;50.792;4.352;2022-08-19T05:35:09;14.52;;;9.43;;
22468;SDS011;11401;50.792;4.352;2022-08-19T05:37:38;14.15;;;10.02;;
22468;SDS011;11401;50.792;4.352;2022-08-19T05:40:07;12.15;;;9.93;;
22468;SDS011;11401;50.792;4.352;2022-08-19T05:42:35;11.60;;;9.52;;
22468;SDS011;11401;50.792;4.352;2022-08-19T05:45:03;13.13;;;9.25;;
22468;SDS011;11401;50.792;4.352;2022-08-19T05:47:31;9.55;;;7.40;;
22468;SDS011;11401;50.792;4.352;2022-08-19T05:49:59;9.20;;;8.27;;
22468;SDS011;11401;50.792;4.352;2022-08-19T05:52:30;7.57;;;6.78;;
22468;SDS011;11401;50.792;4.352;2022-08-19T05:54:58;7.78;;;7.03;;
22468;SDS011;11401;50.792;4.352;2022-08-19T05:57:25;8.57;;;7.38;;
22468;SDS011;11401;50.792;4.352;2022-08-19T05:59:55;7.68;;;6.80;;
22468;SDS011;11401;50.792;4.352;2022-08-19T06:02:28;8.43;;;6.93;;
22468;SDS011;11401;50.792;4.352;2022-08-19T06:04:57;8.75;;;6.63;;
22468;SDS011;11401;50.792;4.352;2022-08-19T06:07:24;8.40;;;6.97;;
22468;SDS011;11401;50.792;4.352;2022-08-19T06:09:51;7.05;;;6.35;;
22468;SDS011;11401;50.792;4.352;2022-08-19T06:12:30;10.35;;;6.70;;
22468;SDS011;11401;50.792;4.352;2022-08-19T06:15:05;6.40;;;5.60;;
22468;SDS011;11401;50.792;4.352;2022-08-19T06:17:35;7.10;;;6.15;;
22468;SDS011;11401;50.792;4.352;2022-08-19T06:20:06;7.40;;;6.38;;
22468;SDS011;11401;50.792;4.352;2022-08-19T06:22:43;6.85;;;6.25;;
22468;SDS011;11401;50.792;4.352;2022-08-19T06:25:12;7.35;;;5.90;;
22468;SDS011;11401;50.792;4.352;2022-08-19T06:27:40;8.95;;;5.85;;
22468;SDS011;11401;50.792;4.352;2022-08-19T06:30:28;8.25;;;6.20;;
22468;SDS011;11401;50.792;4.352;2022-08-19T06:32:55;7.85;;;5.15;;
22468;SDS011;11401;50.792;4.352;2022-08-19T06:35:24;8.25;;;5.57;;
22468;SDS011;11401;50.792;4.352;2022-08-19T06:37:51;7.05;;;5.50;;
22468;SDS011;11401;50.792;4.352;2022-08-19T06:40:18;7.65;;;5.70;;
22468;SDS011;11401;50.792;4.352;2022-08-19T06:42:45;6.03;;;5.20;;
22468;SDS011;11401;50.792;4.352;2022-08-19T06:45:20;6.65;;;5.93;;
22468;SDS011;11401;50.792;4.352;2022-08-19T06:47:59;5.28;;;4.78;;
22468;SDS011;11401;50.792;4.352;2022-08-19T06:50:26;5.38;;;4.90;;
22468;SDS011;11401;50.792;4.352;2022-08-19T06:52:53;6.57;;;5.88;;
22468;SDS011;11401;50.792;4.352;2022-08-19T06:55:20;10.00;;;5.18;;
22468;SDS011;11401;50.792;4.352;2022-08-19T06:57:47;7.75;;;4.55;;
22468;SDS011;11401;50.792;4.352;2022-08-19T07:00:19;7.97;;;4.97;;
22468;SDS011;11401;50.792;4.352;2022-08-19T07:02:47;9.35;;;4.80;;
22468;SDS011;11401;50.792;4.352;2022-08-19T07:05:23;9.95;;;5.10;;
22468;SDS011;11401;50.792;4.352;2022-08-19T07:07:51;9.50;;;6.05;;
22468;SDS011;11401;50.792;4.352;2022-08-19T07:10:18;9.93;;;6.10;;
22468;SDS011;11401;50.792;4.352;2022-08-19T07:12:45;8.80;;;5.60;;
22468;SDS011;11401;50.792;4.352;2022-08-19T07:15:13;7.82;;;5.10;;
22468;SDS011;11401;50.792;4.352;2022-08-19T07:17:44;11.52;;;5.20;;
22468;SDS011;11401;50.792;4.352;2022-08-19T07:20:17;11.20;;;4.97;;
22468;SDS011;11401;50.792;4.352;2022-08-19T07:22:44;8.88;;;5.38;;
22468;SDS011;11401;50.792;4.352;2022-08-19T07:25:11;9.40;;;5.93;;
22468;SDS011;11401;50.792;4.352;2022-08-19T07:27:39;8.82;;;5.55;;
22468;SDS011;11401;50.792;4.352;2022-08-19T07:30:11;10.55;;;6.20;;
22468;SDS011;11401;50.792;4.352;2022-08-19T07:32:39;8.77;;;5.30;;
22468;SDS011;11401;50.792;4.352;2022-08-19T07:35:07;8.70;;;5.55;;
22468;SDS011;11401;50.792;4.352;2022-08-19T07:37:35;10.27;;;5.88;;
22468;SDS011;11401;50.792;4.352;2022-08-19T07:40:04;10.70;;;5.82;;
22468;SDS011;11401;50.792;4.352;2022-08-19T07:42:33;8.90;;;5.40;;
22468;SDS011;11401;50.792;4.352;2022-08-19T07:45:00;8.27;;;5.13;;
22468;SDS011;11401;50.792;4.352;2022-08-19T07:47:27;10.57;;;5.10;;
22468;SDS011;11401;50.792;4.352;2022-08-19T07:50:15;6.32;;;4.55;;
22468;SDS011;11401;50.792;4.352;2022-08-19T07:52:42;10.90;;;4.85;;
22468;SDS011;11401;50.792;4.352;2022-08-19T07:55:16;9.82;;;5.20;;
22468;SDS011;11401;50.792;4.352;2022-08-19T07:58:07;7.40;;;4.30;;
22468;SDS011;11401;50.792;4.352;2022-08-19T08:00:35;6.35;;;4.80;;
22468;SDS011;11401;50.792;4.352;2022-08-19T08:03:02;6.75;;;4.68;;
22468;SDS011;11401;50.792;4.352;2022-08-19T08:05:29;7.22;;;4.63;;
22468;SDS011;11401;50.792;4.352;2022-08-19T08:08:15;7.28;;;4.30;;
22468;SDS011;11401;50.792;4.352;2022-08-19T08:11:01;5.22;;;3.88;;
22468;SDS011;11401;50.792;4.352;2022-08-19T08:13:33;7.05;;;4.07;;
22468;SDS011;11401;50.792;4.352;2022-08-19T08:16:04;9.32;;;4.20;;
22468;SDS011;11401;50.792;4.352;2022-08-19T08:18:39;4.20;;;3.75;;
22468;SDS011;11401;50.792;4.352;2022-08-19T08:21:08;10.73;;;4.28;;
22468;SDS011;11401;50.792;4.352;2022-08-19T08:23:35;8.13;;;4.00;;
22468;SDS011;11401;50.792;4.352;2022-08-19T08:26:05;6.10;;;3.85;;
22468;SDS011;11401;50.792;4.352;2022-08-19T08:28:31;5.13;;;3.33;;
22468;SDS011;11401;50.792;4.352;2022-08-19T08:30:58;7.38;;;3.80;;
22468;SDS011;11401;50.792;4.352;2022-08-19T08:33:26;7.50;;;3.58;;
22468;SDS011;11401;50.792;4.352;2022-08-19T08:36:06;5.85;;;3.17;;
22468;SDS011;11401;50.792;4.352;2022-08-19T08:38:35;5.63;;;3.85;;
22468;SDS011;11401;50.792;4.352;2022-08-19T08:43:58;5.85;;;3.60;;
22468;SDS011;11401;50.792;4.352;2022-08-19T08:52:04;7.75;;;3.42;;
22468;SDS011;11401;50.792;4.352;2022-08-19T08:54:43;6.30;;;3.33;;
22468;SDS011;11401;50.792;4.352;2022-08-19T08:57:32;6.68;;;3.22;;
22468;SDS011;11401;50.792;4.352;2022-08-19T09:00:10;7.82;;;3.28;;
22468;SDS011;11401;50.792;4.352;2022-08-19T09:02:43;4.85;;;2.92;;
22468;SDS011;11401;50.792;4.352;2022-08-19T09:05:16;5.80;;;3.15;;
22468;SDS011;11401;50.792;4.352;2022-08-19T09:16:17;6.32;;;3.60;;
22468;SDS011;11401;50.792;4.352;2022-08-19T09:18:54;13.10;;;3.53;;
22468;SDS011;11401;50.792;4.352;2022-08-19T09:21:32;4.68;;;2.92;;
22468;SDS011;11401;50.792;4.352;2022-08-19T09:24:01;4.68;;;2.88;;
22468;SDS011;11401;50.792;4.352;2022-08-19T09:26:30;9.65;;;3.45;;
22468;SDS011;11401;50.792;4.352;2022-08-19T09:29:18;6.38;;;3.45;;
22468;SDS011;11401;50.792;4.352;2022-08-19T09:31:47;7.63;;;3.17;;
22468;SDS011;11401;50.792;4.352;2022-08-19T09:34:16;5.72;;;3.50;;
22468;SDS011;11401;50.792;4.352;2022-08-19T09:36:47;10.13;;;3.35;;
22468;SDS011;11401;50.792;4.352;2022-08-19T09:39:21;5.07;;;3.13;;
22468;SDS011;11401;50.792;4.352;2022-08-19T09:41:48;3.75;;;2.90;;
22468;SDS011;11401;50.792;4.352;2022-08-19T09:44:16;4.80;;;3.60;;
22468;SDS011;11401;50.792;4.352;2022-08-19T09:46:47;5.03;;;3.60;;
22468;SDS011;11401;50.792;4.352;2022-08-19T09:49:15;4.60;;;3.47;;
22468;SDS011;11401;50.792;4.352;2022-08-19T09:51:44;7.18;;;4.18;;
22468;SDS011;11401;50.792;4.352;2022-08-19T09:54:16;7.38;;;3.90;;
22468;SDS011;11401;50.792;4.352;2022-08-19T09:56:51;7.13;;;3.63;;
22468;SDS011;11401;50.792;4.352;2022-08-19T09:59:21;4.03;;;3.25;;
22468;SDS011;11401;50.792;4.352;2022-08-19T10:01:49;4.03;;;3.22;;
22468;SDS011;11401;50.792;4.352;2022-08-19T10:04:17;5.20;;;3.50;;
22468;SDS011;11401;50.792;4.352;2022-08-19T10:06:48;4.53;;;3.65;;
22468;SDS011;11401;50.792;4.352;2022-08-19T10:09:20;6.93;;;3.45;;
22468;SDS011;11401;50.792;4.352;2022-08-19T10:11:59;4.50;;;3.10;;
22468;SDS011;11401;50.792;4.352;2022-08-19T10:14:28;4.53;;;3.13;;
22468;SDS011;11401;50.792;4.352;2022-08-19T10:16:56;4.90;;;3.47;;
22468;SDS011;11401;50.792;4.352;2022-08-19T10:19:24;4.60;;;3.13;;
22468;SDS011;11401;50.792;4.352;2022-08-19T10:21:52;3.92;;;3.22;;
22468;SDS011;11401;50.792;4.352;2022-08-19T10:24:25;4.97;;;3.40;;
22468;SDS011;11401;50.792;4.352;2022-08-19T10:26:54;3.67;;;3.38;;
22468;SDS011;11401;50.792;4.352;2022-08-19T10:29:25;5.97;;;3.28;;
22468;SDS011;11401;50.792;4.352;2022-08-19T10:32:02;6.00;;;4.15;;
22468;SDS011;11401;50.792;4.352;2022-08-19T10:34:38;5.53;;;4.28;;
22468;SDS011;11401;50.792;4.352;2022-08-19T10:37:14;8.75;;;4.75;;
22468;SDS011;11401;50.792;4.352;2022-08-19T10:39:49;7.38;;;4.30;;
22468;SDS011;11401;50.792;4.352;2022-08-19T10:42:17;6.15;;;4.25;;
22468;SDS011;11401;50.792;4.352;2022-08-19T10:44:44;7.47;;;4.07;;
22468;SDS011;11401;50.792;4.352;2022-08-19T10:47:13;4.80;;;4.28;;
22468;SDS011;11401;50.792;4.352;2022-08-19T10:49:50;5.35;;;4.38;;
22468;SDS011;11401;50.792;4.352;2022-08-19T10:52:40;6.45;;;4.60;;
22468;SDS011;11401;50.792;4.352;2022-08-19T10:55:15;7.25;;;4.05;;
22468;SDS011;11401;50.792;4.352;2022-08-19T10:58:02;6.25;;;4.15;;
22468;SDS011;11401;50.792;4.352;2022-08-19T11:00:30;5.72;;;4.90;;
22468;SDS011;11401;50.792;4.352;2022-08-19T11:02:57;5.93;;;4.38;;
22468;SDS011;11401;50.792;4.352;2022-08-19T11:05:24;5.68;;;4.47;;
22468;SDS011;11401;50.792;4.352;2022-08-19T11:07:52;7.85;;;4.18;;
22468;SDS011;11401;50.792;4.352;2022-08-19T11:10:19;6.93;;;5.70;;
22468;SDS011;11401;50.792;4.352;2022-08-19T11:12:47;5.93;;;4.90;;
22468;SDS011;11401;50.792;4.352;2022-08-19T11:15:15;6.15;;;5.45;;
22468;SDS011;11401;50.792;4.352;2022-08-19T11:17:42;6.35;;;5.07;;
22468;SDS011;11401;50.792;4.352;2022-08-19T11:20:13;7.63;;;5.50;;
22468;SDS011;11401;50.792;4.352;2022-08-19T11:22:41;5.20;;;4.70;;
22468;SDS011;11401;50.792;4.352;2022-08-19T11:25:09;10.60;;;5.80;;
22468;SDS011;11401;50.792;4.352;2022-08-19T11:27:38;7.60;;;5.55;;
22468;SDS011;11401;50.792;4.352;2022-08-19T11:30:09;10.48;;;5.65;;
22468;SDS011;11401;50.792;4.352;2022-08-19T11:32:41;7.13;;;5.45;;
22468;SDS011;11401;50.792;4.352;2022-08-19T11:35:14;8.32;;;5.07;;
22468;SDS011;11401;50.792;4.352;2022-08-19T11:37:42;6.47;;;5.85;;
22468;SDS011;11401;50.792;4.352;2022-08-19T11:40:09;8.20;;;5.78;;
22468;SDS011;11401;50.792;4.352;2022-08-19T11:42:37;6.25;;;5.63;;
22468;SDS011;11401;50.792;4.352;2022-08-19T11:45:23;6.05;;;5.45;;
22468;SDS011;11401;50.792;4.352;2022-08-19T11:47:53;5.55;;;5.05;;
22468;SDS011;11401;50.792;4.352;2022-08-19T11:50:21;5.93;;;5.22;;
22468;SDS011;11401;50.792;4.352;2022-08-19T11:52:49;5.15;;;4.65;;
22468;SDS011;11401;50.792;4.352;2022-08-19T11:55:20;5.20;;;4.70;;
22468;SDS011;11401;50.792;4.352;2022-08-19T11:57:47;5.28;;;4.78;;
22468;SDS011;11401;50.792;4.352;2022-08-19T12:00:15;5.68;;;5.18;;
22468;SDS011;11401;50.792;4.352;2022-08-19T12:02:42;6.82;;;4.90;;
22468;SDS011;11401;50.792;4.352;2022-08-19T12:05:09;5.72;;;4.63;;
22468;SDS011;11401;50.792;4.352;2022-08-19T12:07:38;4.95;;;4.38;;
22468;SDS011;11401;50.792;4.352;2022-08-19T12:10:06;4.65;;;4.35;;
22468;SDS011;11401;50.792;4.352;2022-08-19T12:12:33;5.35;;;4.32;;
22468;SDS011;11401;50.792;4.352;2022-08-19T12:15:00;5.05;;;4.30;;
22468;SDS011;11401;50.792;4.352;2022-08-19T12:17:28;4.90;;;3.90;;
22468;SDS011;11401;50.792;4.352;2022-08-19T12:19:57;6.40;;;4.25;;
22468;SDS011;11401;50.792;4.352;2022-08-19T12:22:24;3.65;;;3.35;;
22468;SDS011;11401;50.792;4.352;2022-08-19T12:24:51;5.32;;;3.50;;
22468;SDS011;11401;50.792;4.352;2022-08-19T12:27:19;4.55;;;3.80;;
22468;SDS011;11401;50.792;4.352;2022-08-19T12:30:07;3.95;;;3.60;;
22468;SDS011;11401;50.792;4.352;2022-08-19T12:32:37;3.75;;;3.40;;
22468;SDS011;11401;50.792;4.352;2022-08-19T12:35:05;3.47;;;3.20;;
22468;SDS011;11401;50.792;4.352;2022-08-19T12:37:33;5.60;;;4.03;;
22468;SDS011;11401;50.792;4.352;2022-08-19T12:40:00;6.30;;;3.85;;
22468;SDS011;11401;50.792;4.352;2022-08-19T12:42:28;7.72;;;3.63;;
22468;SDS011;11401;50.792;4.352;2022-08-19T12:44:56;3.38;;;2.80;;
22468;SDS011;11401;50.792;4.352;2022-08-19T12:47:23;4.75;;;3.22;;
22468;SDS011;11401;50.792;4.352;2022-08-19T12:49:52;6.30;;;3.03;;
22468;SDS011;11401;50.792;4.352;2022-08-19T12:52:22;3.28;;;3.00;;
22468;SDS011;11401;50.792;4.352;2022-08-19T12:54:51;3.13;;;2.83;;
22468;SDS011;11401;50.792;4.352;2022-08-19T12:57:21;3.35;;;3.05;;
22468;SDS011;11401;50.792;4.352;2022-08-19T12:59:59;3.00;;;2.80;;
22468;SDS011;11401;50.792;4.352;2022-08-19T13:02:38;2.92;;;2.67;;
22468;SDS011;11401;50.792;4.352;2022-08-19T13:05:07;5.50;;;2.25;;
22468;SDS011;11401;50.792;4.352;2022-08-19T13:07:38;2.22;;;2.10;;
22468;SDS011;11401;50.792;4.352;2022-08-19T13:10:07;2.42;;;2.22;;
22468;SDS011;11401;50.792;4.352;2022-08-19T13:12:35;2.60;;;2.40;;
22468;SDS011;11401;50.792;4.352;2022-08-19T13:15:02;4.68;;;2.35;;
22468;SDS011;11401;50.792;4.352;2022-08-19T13:17:36;2.35;;;2.15;;
22468;SDS011;11401;50.792;4.352;2022-08-19T13:20:04;4.15;;;2.50;;
22468;SDS011;11401;50.792;4.352;2022-08-19T13:22:34;2.00;;;1.90;;
22468;SDS011;11401;50.792;4.352;2022-08-19T13:25:05;2.20;;;1.95;;
22468;SDS011;11401;50.792;4.352;2022-08-19T13:27:33;2.67;;;2.28;;
22468;SDS011;11401;50.792;4.352;2022-08-19T13:30:00;4.05;;;1.58;;
22468;SDS011;11401;50.792;4.352;2022-08-19T13:32:47;2.28;;;1.50;;
22468;SDS011;11401;50.792;4.352;2022-08-19T13:35:32;3.00;;;1.90;;
22468;SDS011;11401;50.792;4.352;2022-08-19T13:38:00;2.17;;;1.65;;
22468;SDS011;11401;50.792;4.352;2022-08-19T13:40:37;1.58;;;1.48;;
22468;SDS011;11401;50.792;4.352;2022-08-19T13:43:06;3.40;;;1.77;;
22468;SDS011;11401;50.792;4.352;2022-08-19T13:45:49;1.65;;;1.55;;
22468;SDS011;11401;50.792;4.352;2022-08-19T13:48:20;2.33;;;1.80;;
22468;SDS011;11401;50.792;4.352;2022-08-19T13:50:47;1.65;;;1.38;;
22468;SDS011;11401;50.792;4.352;2022-08-19T13:53:14;2.50;;;1.70;;
22468;SDS011;11401;50.792;4.352;2022-08-19T13:55:42;2.88;;;1.50;;
22468;SDS011;11401;50.792;4.352;2022-08-19T13:58:10;1.42;;;1.30;;
22468;SDS011;11401;50.792;4.352;2022-08-19T14:00:39;1.88;;;1.40;;
22468;SDS011;11401;50.792;4.352;2022-08-19T14:03:08;3.42;;;1.45;;
22468;SDS011;11401;50.792;4.352;2022-08-19T14:05:35;1.50;;;1.40;;
22468;SDS011;11401;50.792;4.352;2022-08-19T14:08:03;0.88;;;0.88;;
22468;SDS011;11401;50.792;4.352;2022-08-19T14:10:30;1.42;;;1.30;;
22468;SDS011;11401;50.792;4.352;2022-08-19T14:12:59;1.40;;;1.30;;
22468;SDS011;11401;50.792;4.352;2022-08-19T14:15:27;1.25;;;1.15;;
22468;SDS011;11401;50.792;4.352;2022-08-19T14:17:55;2.08;;;1.55;;
22468;SDS011;11401;50.792;4.352;2022-08-19T14:20:23;1.00;;;1.00;;
22468;SDS011;11401;50.792;4.352;2022-08-19T14:22:51;2.53;;;1.10;;
22468;SDS011;11401;50.792;4.352;2022-08-19T14:25:20;2.05;;;1.30;;
22468;SDS011;11401;50.792;4.352;2022-08-19T14:27:49;1.15;;;1.10;;
22468;SDS011;11401;50.792;4.352;2022-08-19T14:30:18;3.58;;;1.27;;
22468;SDS011;11401;50.792;4.352;2022-08-19T14:32:51;1.42;;;1.10;;
22468;SDS011;11401;50.792;4.352;2022-08-19T14:35:20;0.80;;;0.80;;
22468;SDS011;11401;50.792;4.352;2022-08-19T14:37:48;1.17;;;0.88;;
22468;SDS011;11401;50.792;4.352;2022-08-19T14:40:16;1.10;;;0.90;;
22468;SDS011;11401;50.792;4.352;2022-08-19T14:42:55;6.40;;;0.90;;
22468;SDS011;11401;50.792;4.352;2022-08-19T14:45:31;1.25;;;1.10;;
22468;SDS011;11401;50.792;4.352;2022-08-19T14:48:02;0.70;;;0.70;;
22468;SDS011;11401;50.792;4.352;2022-08-19T14:50:37;2.20;;;1.08;;
22468;SDS011;11401;50.792;4.352;2022-08-19T14:53:06;0.80;;;0.77;;
22468;SDS011;11401;50.792;4.352;2022-08-19T14:55:40;1.17;;;0.90;;
22468;SDS011;11401;50.792;4.352;2022-08-19T14:58:12;0.93;;;0.90;;
22468;SDS011;11401;50.792;4.352;2022-08-19T15:00:56;2.47;;;0.88;;
22468;SDS011;11401;50.792;4.352;2022-08-19T15:03:24;2.58;;;0.90;;
22468;SDS011;11401;50.792;4.352;2022-08-19T15:05:52;0.82;;;0.82;;
22468;SDS011;11401;50.792;4.352;2022-08-19T15:08:19;1.90;;;0.80;;
22468;SDS011;11401;50.792;4.352;2022-08-19T15:10:51;3.13;;;0.95;;
22468;SDS011;11401;50.792;4.352;2022-08-19T15:13:18;0.90;;;0.60;;
22468;SDS011;11401;50.792;4.352;2022-08-19T15:15:45;1.67;;;0.73;;
22468;SDS011;11401;50.792;4.352;2022-08-19T15:18:14;2.63;;;0.98;;
22468;SDS011;11401;50.792;4.352;2022-08-19T15:20:42;0.90;;;0.80;;